createdAt,value
2022-08-05T00:02:08.024Z,100077.09
2022-08-05T00:04:37.979Z,100074.69
2022-08-05T00:07:27.525Z,100075.59
2022-08-05T00:09:53.411Z,100071.97
2022-08-05T00:12:21.272Z,100072.88
2022-08-05T00:14:48.553Z,100075.41
2022-08-05T00:17:19.570Z,100074.56
2022-08-05T00:20:02.544Z,100073.34
2022-08-05T00:22:29.889Z,100069.81
2022-08-05T00:24:57.896Z,100078.03
2022-08-05T00:27:28.427Z,100072.06
2022-08-05T00:30:04.244Z,100080.75
2022-08-05T00:32:30.903Z,100071.16
2022-08-05T00:35:06.812Z,100076.56
2022-08-05T00:37:35.396Z,100072.47
2022-08-05T00:40:26.827Z,100072.91
2022-08-05T00:42:59.577Z,100080.22
2022-08-05T00:45:38.783Z,100074.63
2022-08-05T00:48:15.758Z,100067.97
2022-08-05T00:50:46.044Z,100068.22
2022-08-05T00:54:01.264Z,100070.56
2022-08-05T00:56:05.573Z,100065.47
2022-08-05T00:58:34.980Z,100077.59
2022-08-05T01:01:03.819Z,100066.78
2022-08-05T01:03:35.447Z,100068.88
2022-08-05T01:06:02.622Z,100061.38
2022-08-05T01:08:43.660Z,100055.59
2022-08-05T01:11:33.412Z,100055.19
2022-08-05T01:14:11.840Z,100059.63
2022-08-05T01:16:52.298Z,100061.44
2022-08-05T01:19:21.618Z,100056.91
2022-08-05T01:22:18.699Z,100062.69
2022-08-05T01:24:50.398Z,100050.41
2022-08-05T01:27:55.895Z,100051.38
2022-08-05T01:30:34.028Z,100050.31
2022-08-05T01:33:03.966Z,100045.81
2022-08-05T01:35:51.873Z,100045.44
2022-08-05T01:38:27.016Z,100048.91
2022-08-05T01:40:55.584Z,100049.19
2022-08-05T01:43:24.185Z,100052.56
2022-08-05T01:45:56.429Z,100048.78
2022-08-05T01:48:25.485Z,100042.56
2022-08-05T01:50:55.293Z,100047.53
2022-08-05T01:53:54.697Z,100047.16
2022-08-05T01:56:10.290Z,100042.75
2022-08-05T01:58:45.232Z,100045.03
2022-08-05T02:01:13.644Z,100044.16
2022-08-05T02:03:45.086Z,100045.66
2022-08-05T02:06:33.328Z,100045.88
2022-08-05T02:08:59.372Z,100037.19
2022-08-05T02:11:33.515Z,100032.84
2022-08-05T02:14:12.672Z,100031.59
2022-08-05T02:16:52.150Z,100030.59
2022-08-05T02:19:34.372Z,100026.84
2022-08-05T02:22:25.685Z,100031.63
2022-08-05T02:24:56.436Z,100025.22
2022-08-05T02:27:30.211Z,100023.31
2022-08-05T02:30:13.663Z,100019.59
2022-08-05T02:32:41.216Z,100022.94
2022-08-05T02:35:14.043Z,100017.75
2022-08-05T02:37:42.148Z,100021.47
2022-08-05T02:40:21.178Z,100013.59
2022-08-05T02:42:52.828Z,100015.25
2022-08-05T02:45:25.205Z,100018.56
2022-08-05T02:48:11.710Z,100013.16
2022-08-05T02:50:43.925Z,100017.53
2022-08-05T02:53:16.002Z,100009.06
2022-08-05T02:55:54.885Z,100015.06
2022-08-05T02:58:27.349Z,100013.59
2022-08-05T03:00:56.799Z,100007.78
2022-08-05T03:03:24.008Z,100000.31
2022-08-05T03:06:57.088Z,100001.13
2022-08-05T03:08:38.971Z,100002.41
2022-08-05T03:11:55.218Z,99990.59
2022-08-05T03:14:08.013Z,99997.47
2022-08-05T03:16:35.744Z,99990.97
2022-08-05T03:19:08.775Z,99999.50
2022-08-05T03:21:48.543Z,99999.53
2022-08-05T03:24:18.405Z,99991.44
2022-08-05T03:26:56.396Z,99992.22
2022-08-05T03:29:24.031Z,99994.91
2022-08-05T03:31:57.315Z,99992.84
2022-08-05T03:34:28.135Z,99997.19
2022-08-05T03:36:55.527Z,99985.75
2022-08-05T03:39:26.755Z,99994.03
2022-08-05T03:41:56.243Z,99990.50
2022-08-05T03:44:23.388Z,99995.69
2022-08-05T03:46:50.329Z,99996.09
2022-08-05T03:49:17.185Z,99995.69
2022-08-05T03:52:38.144Z,99998.09
2022-08-05T03:55:54.209Z,100000.19
2022-08-05T03:57:42.285Z,99993.16
2022-08-05T04:00:11.876Z,99997.25
2022-08-05T04:02:52.203Z,99999.75
2022-08-05T04:05:33.208Z,99988.94
2022-08-05T04:08:02.681Z,99990.75
2022-08-05T04:10:37.224Z,99997.19
2022-08-05T04:13:05.806Z,99998.66
2022-08-05T04:15:36.119Z,99995.84
2022-08-05T04:18:07.022Z,99993.09
2022-08-05T04:20:35.343Z,99997.47
2022-08-05T04:23:02.161Z,99997.84
2022-08-05T04:25:56.984Z,99997.84
2022-08-05T04:28:17.417Z,100001.91
2022-08-05T04:30:44.444Z,99998.19
2022-08-05T04:33:12.220Z,99997.91
2022-08-05T04:36:11.186Z,99999.31
2022-08-05T04:38:39.506Z,99995.59
2022-08-05T04:41:07.384Z,99990.16
2022-08-05T04:43:36.016Z,99989.25
2022-08-05T04:46:04.986Z,99988.69
2022-08-05T04:48:31.809Z,99991.28
2022-08-05T04:51:01.706Z,99996.22
2022-08-05T04:53:33.373Z,99992.78
2022-08-05T04:56:14.724Z,99990.22
2022-08-05T04:58:48.592Z,99993.06
2022-08-05T05:01:15.239Z,99994.81
2022-08-05T05:04:00.750Z,100004.06
2022-08-05T05:06:37.051Z,100000.47
2022-08-05T05:09:14.290Z,100011.13
2022-08-05T05:11:55.458Z,100003.97
2022-08-05T05:14:27.953Z,100008.47
2022-08-05T05:16:58.698Z,100010.97
2022-08-05T05:19:26.647Z,100016.09
2022-08-05T05:21:55.683Z,100010.31
2022-08-05T05:24:22.426Z,100027.03
2022-08-05T05:27:08.886Z,100025.53
2022-08-05T05:30:03.193Z,100025.53
2022-08-05T05:32:23.203Z,100031.69
2022-08-05T05:34:52.382Z,100032.41
2022-08-05T05:37:19.212Z,100035.03
2022-08-05T05:39:45.762Z,100033.94
2022-08-05T05:42:12.479Z,100036.44
2022-08-05T05:44:43.092Z,100039.75
2022-08-05T05:47:21.750Z,100039.19
2022-08-05T05:49:52.529Z,100040.13
2022-08-05T05:52:28.573Z,100047.41
2022-08-05T05:55:02.017Z,100050.31
2022-08-05T05:57:42.927Z,100034.59
2022-08-05T06:00:21.661Z,100044.09
2022-08-05T06:02:58.166Z,100049.06
2022-08-05T06:05:25.699Z,100055.06
2022-08-05T06:08:01.218Z,100061.28
2022-08-05T06:10:29.273Z,100059.75
2022-08-05T06:12:56.023Z,100068.56
2022-08-05T06:15:24.525Z,100064.38
2022-08-05T06:18:10.929Z,100082.00
2022-08-05T06:20:38.290Z,100084.16
2022-08-05T06:23:05.005Z,100084.75
2022-08-05T06:26:12.259Z,100077.53
2022-08-05T06:28:21.645Z,100072.72
2022-08-05T06:30:48.689Z,100083.94
2022-08-05T06:33:19.080Z,100086.59
2022-08-05T06:36:04.151Z,100077.41
2022-08-05T06:38:35.920Z,100073.22
2022-08-05T06:41:04.266Z,100084.41
2022-08-05T06:43:58.457Z,100083.84
2022-08-05T06:46:18.078Z,100095.41
2022-08-05T06:48:55.652Z,100090.16
2022-08-05T06:51:30.058Z,100093.59
2022-08-05T06:54:02.138Z,100091.81
2022-08-05T06:56:29.986Z,100081.28
2022-08-05T06:59:00.059Z,100090.97
2022-08-05T07:01:31.954Z,100087.72
2022-08-05T07:04:01.420Z,100086.94
2022-08-05T07:06:29.098Z,100090.53
2022-08-05T07:08:55.757Z,100083.00
2022-08-05T07:11:25.256Z,100090.53
2022-08-05T07:14:20.689Z,100093.38
2022-08-05T07:18:01.615Z,100092.84
2022-08-05T07:20:31.396Z,100095.94
2022-08-05T07:22:38.405Z,100097.69
2022-08-05T07:25:22.130Z,100099.13
2022-08-05T07:27:58.694Z,100079.16
2022-08-05T07:30:32.829Z,100083.47
2022-08-05T07:33:05.213Z,100098.56
2022-08-05T07:36:02.608Z,100087.84
2022-08-05T07:38:32.053Z,100082.13
2022-08-05T07:41:16.797Z,100094.44
2022-08-05T07:43:48.529Z,100087.03
2022-08-05T07:46:24.485Z,100065.72
2022-08-05T07:49:02.172Z,100060.56
2022-08-05T07:51:36.770Z,100057.88
2022-08-05T07:54:05.654Z,100041.72
2022-08-05T07:57:01.857Z,100030.81
2022-08-05T07:59:38.342Z,100025.38
2022-08-05T08:02:16.082Z,100025.22
2022-08-05T08:04:48.208Z,100020.19
2022-08-05T08:07:15.838Z,100020.53
2022-08-05T08:09:43.274Z,100030.00
2022-08-05T08:12:29.706Z,100028.84
2022-08-05T08:14:56.865Z,100028.53
2022-08-05T08:17:28.777Z,100024.97
2022-08-05T08:20:21.653Z,100030.03
2022-08-05T08:22:43.735Z,100027.13
2022-08-05T08:25:16.351Z,100021.25
2022-08-05T08:27:47.685Z,100020.44
2022-08-05T08:30:29.727Z,100016.94
2022-08-05T08:33:04.617Z,100012.34
2022-08-05T08:35:41.419Z,100008.16
2022-08-05T08:38:32.291Z,100015.69
2022-08-05T08:41:07.268Z,100014.69
2022-08-05T08:45:24.059Z,100014.09
2022-08-05T08:46:24.119Z,100022.06
2022-08-05T08:49:07.810Z,100011.34
2022-08-05T08:52:03.854Z,100004.44
2022-08-05T08:54:27.361Z,100009.06
2022-08-05T08:56:54.369Z,100012.88
2022-08-05T08:59:23.518Z,100013.81
2022-08-05T09:01:57.238Z,100002.72
2022-08-05T09:04:30.554Z,100006.03
2022-08-05T09:06:57.742Z,100000.38
2022-08-05T09:09:25.241Z,100004.25
2022-08-05T09:11:55.339Z,100008.00
2022-08-05T09:14:57.619Z,100005.06
2022-08-05T09:17:42.699Z,99999.03
2022-08-05T09:20:05.225Z,100003.13
2022-08-05T09:23:09.574Z,100008.84
2022-08-05T09:26:03.069Z,99991.47
2022-08-05T09:28:31.662Z,99997.06
2022-08-05T09:31:43.687Z,99983.84
2022-08-05T09:33:59.349Z,99981.34
2022-08-05T09:36:53.949Z,99977.91
2022-08-05T09:39:24.700Z,99974.69
2022-08-05T09:42:07.869Z,99983.75
2022-08-05T09:44:38.947Z,99974.47
2022-08-05T09:47:15.769Z,99976.91
2022-08-05T09:50:00.780Z,99967.69
2022-08-05T09:52:35.020Z,99973.94
2022-08-05T09:55:56.749Z,99968.31
2022-08-05T09:57:58.559Z,99976.47
2022-08-05T10:00:26.028Z,99974.81
2022-08-05T10:02:58.131Z,99971.72
2022-08-05T10:05:28.222Z,99966.53
2022-08-05T10:08:35.823Z,99960.06
2022-08-05T10:10:50.195Z,99955.66
2022-08-05T10:13:47.412Z,99953.50
2022-08-05T10:16:37.897Z,99944.69
2022-08-05T10:19:19.103Z,99937.63
2022-08-05T10:21:50.784Z,99939.19
2022-08-05T10:24:21.074Z,99936.22
2022-08-05T10:26:56.380Z,99922.00
2022-08-05T10:30:06.706Z,99922.94
2022-08-05T10:32:51.848Z,99932.13
2022-08-05T10:35:04.110Z,99928.16
2022-08-05T10:37:37.148Z,99931.38
2022-08-05T10:40:17.819Z,99930.72
2022-08-05T10:42:48.438Z,99925.84
2022-08-05T10:45:23.986Z,99926.63
2022-08-05T10:48:52.691Z,99924.19
2022-08-05T10:51:29.156Z,99924.47
2022-08-05T10:54:01.639Z,99920.97
2022-08-05T10:56:44.848Z,99918.00
2022-08-05T10:59:12.643Z,99918.63
2022-08-05T11:02:14.495Z,99916.97
2022-08-05T11:04:56.765Z,99911.16
2022-08-05T11:07:32.993Z,99904.47
2022-08-05T11:10:27.487Z,99888.78
2022-08-05T11:12:55.261Z,99893.88
2022-08-05T11:15:59.173Z,99888.13
2022-08-05T11:18:29.788Z,99896.78
2022-08-05T11:20:59.678Z,99892.25
2022-08-05T11:24:04.590Z,99890.94
2022-08-05T11:26:40.553Z,99882.94
2022-08-05T11:29:37.595Z,99892.94
2022-08-05T11:32:28.488Z,99898.16
2022-08-05T11:34:56.313Z,99877.25
2022-08-05T11:38:29.279Z,99893.19
2022-08-05T11:41:34.350Z,99892.00
2022-08-05T11:44:05.044Z,99881.28
2022-08-05T11:46:58.205Z,99873.19
2022-08-05T11:49:33.860Z,99882.53
2022-08-05T11:52:01.137Z,99880.34
2022-08-05T11:54:33.705Z,99874.88
2022-08-05T11:57:08.575Z,99880.84
2022-08-05T11:59:50.386Z,99873.28
2022-08-05T12:02:31.823Z,99877.28
2022-08-05T12:05:06.805Z,99879.84
2022-08-05T12:08:03.468Z,99877.81
2022-08-05T12:10:43.753Z,99869.03
2022-08-05T12:13:16.477Z,99876.94
2022-08-05T12:15:45.064Z,99871.72
2022-08-05T12:18:32.821Z,99871.22
2022-08-05T12:21:17.528Z,99863.41
2022-08-05T12:24:00.050Z,99869.88
2022-08-05T12:26:33.376Z,99865.31
2022-08-05T12:29:01.408Z,99864.97
2022-08-05T12:31:33.684Z,99854.22
2022-08-05T12:34:20.276Z,99852.34
2022-08-05T12:36:48.369Z,99847.88
2022-08-05T12:39:18.199Z,99844.53
2022-08-05T12:41:45.137Z,99850.19
2022-08-05T12:44:28.697Z,99846.34
2022-08-05T12:47:01.752Z,99850.53
2022-08-05T12:50:03.201Z,99838.19
2022-08-05T12:52:29.773Z,99837.78
2022-08-05T12:55:02.086Z,99838.78
2022-08-05T12:58:38.958Z,99847.59
2022-08-05T13:02:03.463Z,99832.75
2022-08-05T13:03:14.733Z,99843.75
2022-08-05T13:05:42.072Z,99827.00
2022-08-05T13:08:08.915Z,99821.47
2022-08-05T13:10:50.331Z,99826.88
2022-08-05T13:14:05.834Z,99827.91
2022-08-05T13:16:13.098Z,99831.78
2022-08-05T13:19:01.559Z,99820.44
2022-08-05T13:21:38.107Z,99831.34
2022-08-05T13:24:27.649Z,99824.09
2022-08-05T13:27:03.644Z,99829.50
2022-08-05T13:29:37.866Z,99817.59
2022-08-05T13:32:05.606Z,99808.06
2022-08-05T13:34:33.406Z,99806.56
2022-08-05T13:37:00.459Z,99811.16
2022-08-05T13:40:15.890Z,99810.16
2022-08-05T13:42:15.277Z,99812.00
2022-08-05T13:44:45.794Z,99803.25
2022-08-05T13:47:35.729Z,99801.41
2022-08-05T13:50:01.319Z,99788.19
2022-08-05T13:52:31.537Z,99797.13
2022-08-05T13:55:02.580Z,99801.38
2022-08-05T13:57:49.049Z,99794.81
2022-08-05T14:00:26.825Z,99798.31
2022-08-05T14:02:55.734Z,99790.00
2022-08-05T14:05:48.096Z,99788.69
2022-08-05T14:08:19.804Z,99791.47
2022-08-05T14:10:48.884Z,99780.97
2022-08-05T14:13:16.232Z,99790.78
2022-08-05T14:16:07.194Z,99790.50
2022-08-05T14:18:29.593Z,99778.69
2022-08-05T14:20:56.086Z,99771.50
2022-08-05T14:23:25.772Z,99771.97
2022-08-05T14:25:58.247Z,99778.81
2022-08-05T14:28:27.929Z,99778.88
2022-08-05T14:30:56.115Z,99784.06
2022-08-05T14:33:23.858Z,99776.53
2022-08-05T14:35:51.918Z,99778.50
2022-08-05T14:38:33.333Z,99778.66
2022-08-05T14:41:06.705Z,99772.53
2022-08-05T14:43:57.500Z,99768.09
2022-08-05T14:46:28.339Z,99765.63
2022-08-05T14:49:06.608Z,99768.13
2022-08-05T14:51:36.574Z,99775.22
2022-08-05T14:54:27.007Z,99774.25
2022-08-05T14:56:51.085Z,99759.03
2022-08-05T14:59:21.777Z,99769.34
2022-08-05T15:01:49.804Z,99766.34
2022-08-05T15:04:20.713Z,99763.81
2022-08-05T15:06:50.043Z,99769.31
2022-08-05T15:09:51.099Z,99765.75
2022-08-05T15:12:09.536Z,99761.13
2022-08-05T15:14:49.366Z,99768.06
2022-08-05T15:17:46.748Z,99759.84
2022-08-05T15:20:06.125Z,99757.09
2022-08-05T15:22:33.507Z,99754.66
2022-08-05T15:25:00.230Z,99764.69
2022-08-05T15:27:38.160Z,99755.66
2022-08-05T15:30:11.029Z,99745.69
2022-08-05T15:32:41.348Z,99737.63
2022-08-05T15:35:10.616Z,99737.94
2022-08-05T15:38:31.876Z,99739.13
2022-08-05T15:40:59.157Z,99741.25
2022-08-05T15:43:20.644Z,99744.31
2022-08-05T15:45:47.820Z,99740.28
2022-08-05T15:48:28.243Z,99735.81
2022-08-05T15:50:55.105Z,99726.91
2022-08-05T15:53:23.040Z,99725.59
2022-08-05T15:56:02.761Z,99734.56
2022-08-05T15:58:35.506Z,99731.41
2022-08-05T16:01:17.179Z,99726.53
2022-08-05T16:03:48.749Z,99733.63
2022-08-05T16:06:19.575Z,99734.41
2022-08-05T16:08:47.518Z,99734.66
2022-08-05T16:11:14.065Z,99732.94
2022-08-05T16:13:41.225Z,99728.25
2022-08-05T16:16:07.925Z,99723.66
2022-08-05T16:18:51.714Z,99717.13
2022-08-05T16:21:20.575Z,99719.06
2022-08-05T16:23:54.979Z,99717.06
2022-08-05T16:26:26.370Z,99716.72
2022-08-05T16:28:54.531Z,99707.16
2022-08-05T16:31:21.465Z,99699.81
2022-08-05T16:33:48.376Z,99708.06
2022-08-05T16:36:15.090Z,99706.22
2022-08-05T16:38:54.841Z,99707.78
2022-08-05T16:42:14.196Z,99708.34
2022-08-05T16:44:09.896Z,99709.59
2022-08-05T16:46:38.834Z,99706.59
2022-08-05T16:49:09.023Z,99708.94
2022-08-05T16:51:50.254Z,99711.59
2022-08-05T16:54:25.726Z,99707.50
2022-08-05T16:56:54.107Z,99706.16
2022-08-05T16:59:20.822Z,99707.66
2022-08-05T17:01:54.477Z,99704.19
2022-08-05T17:04:27.731Z,99703.47
2022-08-05T17:06:56.915Z,99704.59
2022-08-05T17:09:28.099Z,99702.56
2022-08-05T17:11:59.600Z,99697.56
2022-08-05T17:14:36.930Z,99706.59
2022-08-05T17:17:05.160Z,99704.56
2022-08-05T17:19:31.652Z,99700.59
2022-08-05T17:21:58.545Z,99698.44
2022-08-05T17:24:35.136Z,99693.75
2022-08-05T17:27:08.944Z,99702.72
2022-08-05T17:29:40.994Z,99703.88
2022-08-05T17:32:11.953Z,99699.41
2022-08-05T17:34:44.645Z,99702.41
2022-08-05T17:37:39.716Z,99708.66
2022-08-05T17:40:01.564Z,99703.97
2022-08-05T17:42:32.469Z,99711.03
2022-08-05T17:45:17.746Z,99705.81
2022-08-05T17:47:53.028Z,99707.06
2022-08-05T17:50:30.134Z,99709.16
2022-08-05T17:53:04.984Z,99700.63
2022-08-05T17:55:38.201Z,99701.03
2022-08-05T17:58:12.899Z,99701.66
2022-08-05T18:00:45.385Z,99701.31
2022-08-05T18:03:28.095Z,99700.06
2022-08-05T18:06:04.919Z,99711.06
2022-08-05T18:08:35.129Z,99700.50
2022-08-05T18:11:03.267Z,99701.91
2022-08-05T18:13:36.587Z,99700.00
2022-08-05T18:16:13.417Z,99698.19
2022-08-05T18:18:40.870Z,99708.09
2022-08-05T18:21:13.054Z,99705.09
2022-08-05T18:23:47.168Z,99697.47
2022-08-05T18:26:13.887Z,99695.38
2022-08-05T18:28:44.666Z,99698.69
2022-08-05T18:31:13.295Z,99701.94
2022-08-05T18:33:47.272Z,99703.34
2022-08-05T18:36:17.505Z,99696.25
2022-08-05T18:38:46.197Z,99693.53
2022-08-05T18:41:55.404Z,99691.91
2022-08-05T18:44:06.204Z,99694.09
2022-08-05T18:46:34.386Z,99689.44
2022-08-05T18:49:21.048Z,99683.97
2022-08-05T18:52:08.933Z,99688.03
2022-08-05T18:54:41.416Z,99693.50
2022-08-05T18:57:15.515Z,99690.22
2022-08-05T19:00:02.467Z,99692.13
2022-08-05T19:02:28.995Z,99694.81
2022-08-05T19:05:02.687Z,99690.63
2022-08-05T19:07:45.947Z,99694.13
2022-08-05T19:10:14.031Z,99687.84
2022-08-05T19:12:40.538Z,99692.72
2022-08-05T19:15:45.100Z,99697.88
2022-08-05T19:18:08.355Z,99691.31
2022-08-05T19:20:36.507Z,99695.41
2022-08-05T19:23:07.927Z,99687.78
2022-08-05T19:25:43.409Z,99688.81
2022-08-05T19:28:10.427Z,99694.56
2022-08-05T19:30:37.018Z,99696.72
2022-08-05T19:33:05.111Z,99698.34
2022-08-05T19:35:55.831Z,99695.34
2022-08-05T19:38:26.565Z,99699.69
2022-08-05T19:40:53.627Z,99693.88
2022-08-05T19:43:31.204Z,99696.28
2022-08-05T19:46:16.908Z,99692.22
2022-08-05T19:48:54.279Z,99691.34
2022-08-05T19:52:05.759Z,99682.59
2022-08-05T19:54:27.000Z,99685.09
2022-08-05T19:56:57.892Z,99693.81
2022-08-05T20:00:00.522Z,99696.78
2022-08-05T20:02:11.559Z,99700.94
2022-08-05T20:04:38.308Z,99702.59
2022-08-05T20:07:13.309Z,99701.75
2022-08-05T20:09:54.008Z,99699.75
2022-08-05T20:12:22.708Z,99697.00
2022-08-05T20:14:52.287Z,99695.38
2022-08-05T20:17:19.845Z,99686.31
2022-08-05T20:19:56.984Z,99686.25
2022-08-05T20:22:26.654Z,99683.19
2022-08-05T20:24:53.861Z,99676.41
2022-08-05T20:27:21.035Z,99682.38
2022-08-05T20:29:58.183Z,99684.25
2022-08-05T20:32:26.361Z,99686.94
2022-08-05T20:34:53.226Z,99680.97
2022-08-05T20:38:06.770Z,99684.25
2022-08-05T20:40:08.599Z,99683.06
2022-08-05T20:42:35.546Z,99682.59
2022-08-05T20:45:02.622Z,99690.72
2022-08-05T20:47:31.760Z,99693.44
2022-08-05T20:50:00.032Z,99695.13
2022-08-05T20:52:29.569Z,99695.44
2022-08-05T20:55:15.891Z,99701.63
2022-08-05T20:57:44.673Z,99696.22
2022-08-05T21:00:41.380Z,99687.53
2022-08-05T21:03:07.031Z,99697.88
2022-08-05T21:05:48.149Z,99692.81
2022-08-05T21:08:26.440Z,99697.69
2022-08-05T21:10:54.558Z,99696.31
2022-08-05T21:13:26.159Z,99700.91
2022-08-05T21:16:12.212Z,99696.56
2022-08-05T21:18:38.851Z,99700.06
2022-08-05T21:21:11.834Z,99703.66
2022-08-05T21:23:38.996Z,99705.81
2022-08-05T21:26:08.358Z,99699.25
2022-08-05T21:28:41.152Z,99697.56
2022-08-05T21:31:18.739Z,99691.88
2022-08-05T21:33:47.745Z,99698.66
2022-08-05T21:36:27.467Z,99704.19
2022-08-05T21:38:56.529Z,99703.91
2022-08-05T21:41:23.223Z,99700.38
2022-08-05T21:43:50.932Z,99707.16
2022-08-05T21:46:30.176Z,99711.78
2022-08-05T21:48:57.074Z,99709.09
2022-08-05T21:52:15.869Z,99714.59
2022-08-05T21:54:13.020Z,99705.84
2022-08-05T21:56:44.618Z,99710.25
2022-08-05T21:59:23.975Z,99705.91
2022-08-05T22:01:51.814Z,99707.13
2022-08-05T22:04:21.505Z,99695.75
2022-08-05T22:06:52.323Z,99700.28
2022-08-05T22:09:21.583Z,99703.03
2022-08-05T22:11:48.986Z,99703.34
2022-08-05T22:14:32.999Z,99714.25
2022-08-05T22:17:05.016Z,99710.66
2022-08-05T22:20:03.484Z,99709.31
2022-08-05T22:22:26.663Z,99705.09
2022-08-05T22:25:21.190Z,99708.63
2022-08-05T22:28:09.439Z,99709.63
2022-08-05T22:30:55.471Z,99709.63
2022-08-05T22:33:56.594Z,99704.41
2022-08-05T22:36:14.298Z,99694.84
2022-08-05T22:38:42.665Z,99694.25
2022-08-05T22:41:10.118Z,99700.75
2022-08-05T22:43:37.930Z,99695.22
2022-08-05T22:46:11.845Z,99695.16
2022-08-05T22:48:39.675Z,99700.09
2022-08-05T22:51:07.671Z,99694.59
2022-08-05T22:53:35.844Z,99688.59
2022-08-05T22:56:03.597Z,99687.50
2022-08-05T22:58:36.466Z,99689.59
2022-08-05T23:01:03.032Z,99683.63
2022-08-05T23:03:57.988Z,99684.69
2022-08-05T23:06:18.919Z,99691.13
2022-08-05T23:08:45.761Z,99683.97
2022-08-05T23:11:18.846Z,99680.16
2022-08-05T23:13:45.789Z,99688.28
2022-08-05T23:16:38.671Z,99689.13
2022-08-05T23:19:10.589Z,99688.78
2022-08-05T23:21:50.582Z,99685.41
2022-08-05T23:24:17.235Z,99686.25
2022-08-05T23:26:45.830Z,99683.16
2022-08-05T23:29:15.630Z,99690.50
2022-08-05T23:31:42.644Z,99690.50
2022-08-05T23:34:11.097Z,99689.53
2022-08-05T23:36:38.415Z,99697.69
2022-08-05T23:39:06.363Z,99695.53
2022-08-05T23:41:34.378Z,99692.78
2022-08-05T23:44:08.697Z,99699.19
2022-08-05T23:46:37.481Z,99691.03
2022-08-05T23:49:17.011Z,99699.66
2022-08-05T23:52:07.843Z,99690.34
2022-08-05T23:54:38.496Z,99694.69
2022-08-05T23:57:06.586Z,99687.16
